sensor_id;sensor_type;location;lat;lon;timestamp;pressure;altitude;pressure_sealevel;temperature
71463;BMP180;59266;52.608;13.260;2022-08-21T00:00:23;101163.00;;;19.20
71463;BMP180;59266;52.608;13.260;2022-08-21T00:02:55;101165.00;;;19.20
71463;BMP180;59266;52.608;13.260;2022-08-21T00:05:23;101169.00;;;19.20
71463;BMP180;59266;52.608;13.260;2022-08-21T00:07:51;101157.00;;;19.20
71463;BMP180;59266;52.608;13.260;2022-08-21T00:10:17;101161.00;;;19.10
71463;BMP180;59266;52.608;13.260;2022-08-21T00:12:45;101158.00;;;19.10
71463;BMP180;59266;52.608;13.260;2022-08-21T00:15:16;101164.00;;;19.10
71463;BMP180;59266;52.608;13.260;2022-08-21T00:17:43;101166.00;;;19.00
71463;BMP180;59266;52.608;13.260;2022-08-21T00:20:11;101175.00;;;19.00
71463;BMP180;59266;52.608;13.260;2022-08-21T00:22:39;101174.00;;;19.00
71463;BMP180;59266;52.608;13.260;2022-08-21T00:25:07;101157.00;;;18.90
71463;BMP180;59266;52.608;13.260;2022-08-21T00:27:34;101165.00;;;18.80
71463;BMP180;59266;52.608;13.260;2022-08-21T00:30:00;101157.00;;;18.80
71463;BMP180;59266;52.608;13.260;2022-08-21T00:32:27;101157.00;;;18.70
71463;BMP180;59266;52.608;13.260;2022-08-21T00:34:54;101159.00;;;18.70
71463;BMP180;59266;52.608;13.260;2022-08-21T00:37:21;101153.00;;;18.70
71463;BMP180;59266;52.608;13.260;2022-08-21T00:39:51;101153.00;;;18.70
71463;BMP180;59266;52.608;13.260;2022-08-21T00:42:17;101157.00;;;18.70
71463;BMP180;59266;52.608;13.260;2022-08-21T00:44:47;101154.00;;;18.80
71463;BMP180;59266;52.608;13.260;2022-08-21T00:47:14;101161.00;;;18.80
71463;BMP180;59266;52.608;13.260;2022-08-21T00:49:41;101155.00;;;18.90
71463;BMP180;59266;52.608;13.260;2022-08-21T00:52:12;101164.00;;;18.80
71463;BMP180;59266;52.608;13.260;2022-08-21T00:54:40;101158.00;;;18.80
71463;BMP180;59266;52.608;13.260;2022-08-21T00:57:19;101163.00;;;18.80
71463;BMP180;59266;52.608;13.260;2022-08-21T00:59:51;101162.00;;;18.70
71463;BMP180;59266;52.608;13.260;2022-08-21T01:02:19;101148.00;;;18.70
71463;BMP180;59266;52.608;13.260;2022-08-21T01:04:47;101151.00;;;18.70
71463;BMP180;59266;52.608;13.260;2022-08-21T01:07:13;101152.00;;;18.70
71463;BMP180;59266;52.608;13.260;2022-08-21T01:09:40;101148.00;;;18.70
71463;BMP180;59266;52.608;13.260;2022-08-21T01:12:09;101145.00;;;18.60
71463;BMP180;59266;52.608;13.260;2022-08-21T01:14:35;101145.00;;;18.60
71463;BMP180;59266;52.608;13.260;2022-08-21T01:17:02;101150.00;;;18.60
71463;BMP180;59266;52.608;13.260;2022-08-21T01:19:30;101148.00;;;18.50
71463;BMP180;59266;52.608;13.260;2022-08-21T01:21:56;101154.00;;;18.50
71463;BMP180;59266;52.608;13.260;2022-08-21T01:24:23;101151.00;;;18.40
71463;BMP180;59266;52.608;13.260;2022-08-21T01:26:50;101145.00;;;18.30
71463;BMP180;59266;52.608;13.260;2022-08-21T01:29:34;101149.00;;;18.30
71463;BMP180;59266;52.608;13.260;2022-08-21T01:32:11;101147.00;;;18.20
71463;BMP180;59266;52.608;13.260;2022-08-21T01:34:42;101144.00;;;18.30
71463;BMP180;59266;52.608;13.260;2022-08-21T01:37:09;101140.00;;;18.30
71463;BMP180;59266;52.608;13.260;2022-08-21T01:39:37;101142.00;;;18.30
71463;BMP180;59266;52.608;13.260;2022-08-21T01:42:04;101140.00;;;18.20
71463;BMP180;59266;52.608;13.260;2022-08-21T01:44:31;101141.00;;;18.30
71463;BMP180;59266;52.608;13.260;2022-08-21T01:47:00;101145.00;;;18.30
71463;BMP180;59266;52.608;13.260;2022-08-21T01:49:27;101160.00;;;18.30
71463;BMP180;59266;52.608;13.260;2022-08-21T01:51:54;101156.00;;;18.20
71463;BMP180;59266;52.608;13.260;2022-08-21T01:54:20;101158.00;;;18.10
71463;BMP180;59266;52.608;13.260;2022-08-21T01:56:51;101156.00;;;18.20
71463;BMP180;59266;52.608;13.260;2022-08-21T01:59:19;101163.00;;;18.10
71463;BMP180;59266;52.608;13.260;2022-08-21T02:01:46;101160.00;;;18.10
71463;BMP180;59266;52.608;13.260;2022-08-21T02:04:13;101164.00;;;18.10
71463;BMP180;59266;52.608;13.260;2022-08-21T02:06:40;101153.00;;;18.10
71463;BMP180;59266;52.608;13.260;2022-08-21T02:09:09;101159.00;;;18.00
71463;BMP180;59266;52.608;13.260;2022-08-21T02:11:36;101164.00;;;18.00
71463;BMP180;59266;52.608;13.260;2022-08-21T02:14:03;101162.00;;;17.90
71463;BMP180;59266;52.608;13.260;2022-08-21T02:16:29;101161.00;;;17.90
71463;BMP180;59266;52.608;13.260;2022-08-21T02:18:56;101164.00;;;17.90
71463;BMP180;59266;52.608;13.260;2022-08-21T02:21:23;101160.00;;;17.90
71463;BMP180;59266;52.608;13.260;2022-08-21T02:23:49;101166.00;;;17.80
71463;BMP180;59266;52.608;13.260;2022-08-21T02:26:16;101166.00;;;17.80
71463;BMP180;59266;52.608;13.260;2022-08-21T02:28:43;101158.00;;;17.70
71463;BMP180;59266;52.608;13.260;2022-08-21T02:31:10;101162.00;;;17.70
71463;BMP180;59266;52.608;13.260;2022-08-21T02:33:36;101159.00;;;17.70
71463;BMP180;59266;52.608;13.260;2022-08-21T02:36:03;101159.00;;;17.70
71463;BMP180;59266;52.608;13.260;2022-08-21T02:38:33;101155.00;;;17.60
71463;BMP180;59266;52.608;13.260;2022-08-21T02:41:00;101155.00;;;17.60
71463;BMP180;59266;52.608;13.260;2022-08-21T02:43:27;101152.00;;;17.60
71463;BMP180;59266;52.608;13.260;2022-08-21T02:45:55;101154.00;;;17.50
71463;BMP180;59266;52.608;13.260;2022-08-21T02:48:25;101152.00;;;17.50
71463;BMP180;59266;52.608;13.260;2022-08-21T02:50:55;101156.00;;;17.50
71463;BMP180;59266;52.608;13.260;2022-08-21T02:53:23;101151.00;;;17.50
71463;BMP180;59266;52.608;13.260;2022-08-21T02:55:51;101147.00;;;17.50
71463;BMP180;59266;52.608;13.260;2022-08-21T02:58:23;101151.00;;;17.40
71463;BMP180;59266;52.608;13.260;2022-08-21T03:00:51;101153.00;;;17.40
71463;BMP180;59266;52.608;13.260;2022-08-21T03:03:18;101153.00;;;17.40
71463;BMP180;59266;52.608;13.260;2022-08-21T03:05:44;101156.00;;;17.30
71463;BMP180;59266;52.608;13.260;2022-08-21T03:08:12;101150.00;;;17.40
71463;BMP180;59266;52.608;13.260;2022-08-21T03:10:43;101157.00;;;17.30
71463;BMP180;59266;52.608;13.260;2022-08-21T03:13:11;101147.00;;;17.30
71463;BMP180;59266;52.608;13.260;2022-08-21T03:15:38;101153.00;;;17.20
71463;BMP180;59266;52.608;13.260;2022-08-21T03:18:06;101148.00;;;17.20
71463;BMP180;59266;52.608;13.260;2022-08-21T03:20:35;101149.00;;;17.10
71463;BMP180;59266;52.608;13.260;2022-08-21T03:23:03;101162.00;;;17.10
71463;BMP180;59266;52.608;13.260;2022-08-21T03:25:38;101153.00;;;17.10
71463;BMP180;59266;52.608;13.260;2022-08-21T03:28:09;101153.00;;;17.00
71463;BMP180;59266;52.608;13.260;2022-08-21T03:30:43;101152.00;;;17.00
71463;BMP180;59266;52.608;13.260;2022-08-21T03:33:11;101156.00;;;17.00
71463;BMP180;59266;52.608;13.260;2022-08-21T03:35:42;101162.00;;;17.00
71463;BMP180;59266;52.608;13.260;2022-08-21T03:38:09;101145.00;;;17.00
71463;BMP180;59266;52.608;13.260;2022-08-21T03:40:36;101145.00;;;17.00
71463;BMP180;59266;52.608;13.260;2022-08-21T03:43:02;101147.00;;;16.90
71463;BMP180;59266;52.608;13.260;2022-08-21T03:45:29;101149.00;;;16.90
71463;BMP180;59266;52.608;13.260;2022-08-21T03:48:00;101150.00;;;16.80
71463;BMP180;59266;52.608;13.260;2022-08-21T03:50:31;101151.00;;;16.70
71463;BMP180;59266;52.608;13.260;2022-08-21T03:53:00;101160.00;;;16.70
71463;BMP180;59266;52.608;13.260;2022-08-21T03:55:27;101157.00;;;16.70
71463;BMP180;59266;52.608;13.260;2022-08-21T03:57:54;101150.00;;;16.70
71463;BMP180;59266;52.608;13.260;2022-08-21T04:00:21;101147.00;;;16.70
71463;BMP180;59266;52.608;13.260;2022-08-21T04:02:48;101153.00;;;16.60
71463;BMP180;59266;52.608;13.260;2022-08-21T04:05:16;101149.00;;;16.70
71463;BMP180;59266;52.608;13.260;2022-08-21T04:08:02;101158.00;;;16.60
71463;BMP180;59266;52.608;13.260;2022-08-21T04:10:31;101154.00;;;16.70
71463;BMP180;59266;52.608;13.260;2022-08-21T04:12:58;101163.00;;;16.70
71463;BMP180;59266;52.608;13.260;2022-08-21T04:15:25;101161.00;;;16.60
71463;BMP180;59266;52.608;13.260;2022-08-21T04:17:53;101164.00;;;16.60
71463;BMP180;59266;52.608;13.260;2022-08-21T04:20:20;101172.00;;;16.60
71463;BMP180;59266;52.608;13.260;2022-08-21T04:22:48;101170.00;;;16.60
71463;BMP180;59266;52.608;13.260;2022-08-21T04:25:15;101165.00;;;16.60
71463;BMP180;59266;52.608;13.260;2022-08-21T04:27:42;101166.00;;;16.60
71463;BMP180;59266;52.608;13.260;2022-08-21T04:30:09;101165.00;;;16.60
71463;BMP180;59266;52.608;13.260;2022-08-21T04:32:37;101164.00;;;16.60
71463;BMP180;59266;52.608;13.260;2022-08-21T04:35:07;101167.00;;;16.60
71463;BMP180;59266;52.608;13.260;2022-08-21T04:37:34;101162.00;;;16.60
71463;BMP180;59266;52.608;13.260;2022-08-21T04:40:09;101162.00;;;16.60
71463;BMP180;59266;52.608;13.260;2022-08-21T04:42:50;101168.00;;;16.50
71463;BMP180;59266;52.608;13.260;2022-08-21T04:45:29;101159.00;;;16.50
71463;BMP180;59266;52.608;13.260;2022-08-21T04:47:58;101167.00;;;16.70
71463;BMP180;59266;52.608;13.260;2022-08-21T04:50:38;101172.00;;;16.70
71463;BMP180;59266;52.608;13.260;2022-08-21T04:53:07;101173.00;;;16.80
71463;BMP180;59266;52.608;13.260;2022-08-21T04:55:34;101172.00;;;16.90
71463;BMP180;59266;52.608;13.260;2022-08-21T04:58:01;101168.00;;;16.90
71463;BMP180;59266;52.608;13.260;2022-08-21T05:00:28;101170.00;;;17.00
71463;BMP180;59266;52.608;13.260;2022-08-21T05:02:56;101172.00;;;17.00
71463;BMP180;59266;52.608;13.260;2022-08-21T05:05:28;101170.00;;;17.00
71463;BMP180;59266;52.608;13.260;2022-08-21T05:07:57;101173.00;;;17.00
71463;BMP180;59266;52.608;13.260;2022-08-21T05:10:25;101177.00;;;17.00
71463;BMP180;59266;52.608;13.260;2022-08-21T05:12:52;101170.00;;;17.10
71463;BMP180;59266;52.608;13.260;2022-08-21T05:15:19;101164.00;;;17.20
71463;BMP180;59266;52.608;13.260;2022-08-21T05:17:45;101166.00;;;17.20
71463;BMP180;59266;52.608;13.260;2022-08-21T05:20:25;101166.00;;;17.20
71463;BMP180;59266;52.608;13.260;2022-08-21T05:22:52;101173.00;;;17.30
71463;BMP180;59266;52.608;13.260;2022-08-21T05:25:18;101179.00;;;17.40
71463;BMP180;59266;52.608;13.260;2022-08-21T05:27:48;101176.00;;;17.50
71463;BMP180;59266;52.608;13.260;2022-08-21T05:30:18;101183.00;;;17.50
71463;BMP180;59266;52.608;13.260;2022-08-21T05:32:45;101186.00;;;17.60
71463;BMP180;59266;52.608;13.260;2022-08-21T05:35:12;101188.00;;;17.50
71463;BMP180;59266;52.608;13.260;2022-08-21T05:37:38;101188.00;;;17.60
71463;BMP180;59266;52.608;13.260;2022-08-21T05:40:06;101197.00;;;17.70
71463;BMP180;59266;52.608;13.260;2022-08-21T05:42:48;101196.00;;;17.70
71463;BMP180;59266;52.608;13.260;2022-08-21T05:45:24;101197.00;;;17.80
71463;BMP180;59266;52.608;13.260;2022-08-21T05:48:12;101192.00;;;17.90
71463;BMP180;59266;52.608;13.260;2022-08-21T05:50:39;101195.00;;;18.00
71463;BMP180;59266;52.608;13.260;2022-08-21T05:53:06;101199.00;;;18.10
71463;BMP180;59266;52.608;13.260;2022-08-21T05:55:34;101203.00;;;18.20
71463;BMP180;59266;52.608;13.260;2022-08-21T05:58:02;101202.00;;;18.20
71463;BMP180;59266;52.608;13.260;2022-08-21T06:00:28;101202.00;;;18.10
71463;BMP180;59266;52.608;13.260;2022-08-21T06:02:55;101201.00;;;18.00
71463;BMP180;59266;52.608;13.260;2022-08-21T06:05:22;101205.00;;;18.20
71463;BMP180;59266;52.608;13.260;2022-08-21T06:08:02;101210.00;;;18.30
71463;BMP180;59266;52.608;13.260;2022-08-21T06:10:29;101202.00;;;18.40
71463;BMP180;59266;52.608;13.260;2022-08-21T06:12:55;101203.00;;;18.40
71463;BMP180;59266;52.608;13.260;2022-08-21T06:15:22;101205.00;;;18.50
71463;BMP180;59266;52.608;13.260;2022-08-21T06:17:49;101204.00;;;18.60
71463;BMP180;59266;52.608;13.260;2022-08-21T06:20:15;101207.00;;;18.80
71463;BMP180;59266;52.608;13.260;2022-08-21T06:22:42;101199.00;;;19.20
71463;BMP180;59266;52.608;13.260;2022-08-21T06:25:09;101197.00;;;19.10
71463;BMP180;59266;52.608;13.260;2022-08-21T06:27:35;101195.00;;;19.00
71463;BMP180;59266;52.608;13.260;2022-08-21T06:30:04;101201.00;;;18.80
71463;BMP180;59266;52.608;13.260;2022-08-21T06:32:31;101196.00;;;18.80
71463;BMP180;59266;52.608;13.260;2022-08-21T06:34:58;101193.00;;;19.30
71463;BMP180;59266;52.608;13.260;2022-08-21T06:37:25;101197.00;;;19.40
71463;BMP180;59266;52.608;13.260;2022-08-21T06:39:51;101198.00;;;19.50
71463;BMP180;59266;52.608;13.260;2022-08-21T06:42:19;101200.00;;;19.50
71463;BMP180;59266;52.608;13.260;2022-08-21T06:44:45;101198.00;;;19.70
71463;BMP180;59266;52.608;13.260;2022-08-21T06:47:12;101195.00;;;19.70
71463;BMP180;59266;52.608;13.260;2022-08-21T06:49:39;101192.00;;;19.40
71463;BMP180;59266;52.608;13.260;2022-08-21T06:52:10;101204.00;;;20.00
71463;BMP180;59266;52.608;13.260;2022-08-21T06:54:37;101196.00;;;20.00
71463;BMP180;59266;52.608;13.260;2022-08-21T06:57:04;101200.00;;;20.00
71463;BMP180;59266;52.608;13.260;2022-08-21T06:59:31;101205.00;;;20.00
71463;BMP180;59266;52.608;13.260;2022-08-21T07:01:59;101200.00;;;20.60
71463;BMP180;59266;52.608;13.260;2022-08-21T07:04:26;101190.00;;;21.40
71463;BMP180;59266;52.608;13.260;2022-08-21T07:06:52;101194.00;;;21.10
71463;BMP180;59266;52.608;13.260;2022-08-21T07:09:19;101194.00;;;21.40
71463;BMP180;59266;52.608;13.260;2022-08-21T07:11:52;101185.00;;;21.20
71463;BMP180;59266;52.608;13.260;2022-08-21T07:14:20;101190.00;;;22.20
71463;BMP180;59266;52.608;13.260;2022-08-21T07:16:48;101189.00;;;23.30
71463;BMP180;59266;52.608;13.260;2022-08-21T07:19:15;101181.00;;;24.30
71463;BMP180;59266;52.608;13.260;2022-08-21T07:21:41;101180.00;;;25.30
71463;BMP180;59266;52.608;13.260;2022-08-21T07:24:09;101182.00;;;25.80
71463;BMP180;59266;52.608;13.260;2022-08-21T07:26:36;101178.00;;;26.00
71463;BMP180;59266;52.608;13.260;2022-08-21T07:29:03;101175.00;;;26.10
71463;BMP180;59266;52.608;13.260;2022-08-21T07:31:30;101178.00;;;26.40
71463;BMP180;59266;52.608;13.260;2022-08-21T07:33:57;101183.00;;;26.50
71463;BMP180;59266;52.608;13.260;2022-08-21T07:36:23;101187.00;;;26.90
71463;BMP180;59266;52.608;13.260;2022-08-21T07:38:50;101191.00;;;26.10
71463;BMP180;59266;52.608;13.260;2022-08-21T07:41:21;101187.00;;;24.90
71463;BMP180;59266;52.608;13.260;2022-08-21T07:43:48;101186.00;;;25.40
71463;BMP180;59266;52.608;13.260;2022-08-21T07:46:18;101191.00;;;25.90
71463;BMP180;59266;52.608;13.260;2022-08-21T07:48:44;101190.00;;;25.10
71463;BMP180;59266;52.608;13.260;2022-08-21T07:51:13;101191.00;;;26.00
71463;BMP180;59266;52.608;13.260;2022-08-21T07:53:40;101187.00;;;26.30
71463;BMP180;59266;52.608;13.260;2022-08-21T07:56:09;101190.00;;;27.60
71463;BMP180;59266;52.608;13.260;2022-08-21T07:58:37;101191.00;;;28.30
71463;BMP180;59266;52.608;13.260;2022-08-21T08:01:05;101191.00;;;28.10
71463;BMP180;59266;52.608;13.260;2022-08-21T08:03:33;101185.00;;;27.10
71463;BMP180;59266;52.608;13.260;2022-08-21T08:06:00;101186.00;;;28.70
71463;BMP180;59266;52.608;13.260;2022-08-21T08:08:27;101188.00;;;28.30
71463;BMP180;59266;52.608;13.260;2022-08-21T08:10:56;101189.00;;;27.50
71463;BMP180;59266;52.608;13.260;2022-08-21T08:13:23;101186.00;;;29.50
71463;BMP180;59266;52.608;13.260;2022-08-21T08:15:51;101183.00;;;28.30
71463;BMP180;59266;52.608;13.260;2022-08-21T08:18:17;101183.00;;;28.30
71463;BMP180;59266;52.608;13.260;2022-08-21T08:20:44;101176.00;;;27.10
71463;BMP180;59266;52.608;13.260;2022-08-21T08:23:12;101183.00;;;27.20
71463;BMP180;59266;52.608;13.260;2022-08-21T08:25:39;101176.00;;;28.30
71463;BMP180;59266;52.608;13.260;2022-08-21T08:28:06;101176.00;;;29.80
71463;BMP180;59266;52.608;13.260;2022-08-21T08:30:46;101182.00;;;28.60
71463;BMP180;59266;52.608;13.260;2022-08-21T08:33:13;101177.00;;;29.60
71463;BMP180;59266;52.608;13.260;2022-08-21T08:35:46;101188.00;;;29.30
71463;BMP180;59266;52.608;13.260;2022-08-21T08:38:14;101193.00;;;29.40
71463;BMP180;59266;52.608;13.260;2022-08-21T08:40:52;101190.00;;;29.10
71463;BMP180;59266;52.608;13.260;2022-08-21T08:43:21;101194.00;;;29.70
71463;BMP180;59266;52.608;13.260;2022-08-21T08:45:50;101201.00;;;30.40
71463;BMP180;59266;52.608;13.260;2022-08-21T08:48:31;101200.00;;;30.50
71463;BMP180;59266;52.608;13.260;2022-08-21T08:51:02;101201.00;;;30.50
71463;BMP180;59266;52.608;13.260;2022-08-21T08:53:47;101199.00;;;30.20
71463;BMP180;59266;52.608;13.260;2022-08-21T08:56:14;101201.00;;;29.90
71463;BMP180;59266;52.608;13.260;2022-08-21T08:58:43;101198.00;;;28.40
71463;BMP180;59266;52.608;13.260;2022-08-21T09:01:15;101191.00;;;28.90
71463;BMP180;59266;52.608;13.260;2022-08-21T09:03:44;101187.00;;;29.40
71463;BMP180;59266;52.608;13.260;2022-08-21T09:06:33;101188.00;;;29.20
71463;BMP180;59266;52.608;13.260;2022-08-21T09:11:54;101194.00;;;28.20
71463;BMP180;59266;52.608;13.260;2022-08-21T09:14:52;101196.00;;;27.70
71463;BMP180;59266;52.608;13.260;2022-08-21T09:17:35;101194.00;;;26.90
71463;BMP180;59266;52.608;13.260;2022-08-21T09:20:32;101197.00;;;27.70
71463;BMP180;59266;52.608;13.260;2022-08-21T09:26:07;101195.00;;;27.80
71463;BMP180;59266;52.608;13.260;2022-08-21T09:28:34;101197.00;;;27.60
71463;BMP180;59266;52.608;13.260;2022-08-21T09:31:07;101195.00;;;27.10
71463;BMP180;59266;52.608;13.260;2022-08-21T09:33:33;101197.00;;;26.50
71463;BMP180;59266;52.608;13.260;2022-08-21T09:36:00;101196.00;;;26.90
71463;BMP180;59266;52.608;13.260;2022-08-21T09:38:32;101196.00;;;27.00
71463;BMP180;59266;52.608;13.260;2022-08-21T09:41:03;101195.00;;;27.50
71463;BMP180;59266;52.608;13.260;2022-08-21T09:43:30;101192.00;;;26.60
71463;BMP180;59266;52.608;13.260;2022-08-21T09:46:09;101187.00;;;26.50
71463;BMP180;59266;52.608;13.260;2022-08-21T09:48:42;101193.00;;;26.50
71463;BMP180;59266;52.608;13.260;2022-08-21T09:51:15;101190.00;;;26.70
71463;BMP180;59266;52.608;13.260;2022-08-21T09:53:45;101187.00;;;26.80
71463;BMP180;59266;52.608;13.260;2022-08-21T09:56:20;101191.00;;;26.10
71463;BMP180;59266;52.608;13.260;2022-08-21T09:59:14;101185.00;;;26.40
71463;BMP180;59266;52.608;13.260;2022-08-21T10:01:47;101185.00;;;26.20
71463;BMP180;59266;52.608;13.260;2022-08-21T10:04:14;101186.00;;;26.10
71463;BMP180;59266;52.608;13.260;2022-08-21T10:06:41;101195.00;;;27.30
71463;BMP180;59266;52.608;13.260;2022-08-21T10:09:16;101184.00;;;27.20
71463;BMP180;59266;52.608;13.260;2022-08-21T10:12:15;101189.00;;;27.50
71463;BMP180;59266;52.608;13.260;2022-08-21T10:17:19;101184.00;;;27.80
71463;BMP180;59266;52.608;13.260;2022-08-21T10:19:59;101189.00;;;26.60
71463;BMP180;59266;52.608;13.260;2022-08-21T10:22:43;101179.00;;;26.50
71463;BMP180;59266;52.608;13.260;2022-08-21T10:25:33;101185.00;;;26.10
71463;BMP180;59266;52.608;13.260;2022-08-21T10:28:18;101188.00;;;27.10
71463;BMP180;59266;52.608;13.260;2022-08-21T10:30:56;101191.00;;;26.80
71463;BMP180;59266;52.608;13.260;2022-08-21T10:33:42;101182.00;;;26.80
71463;BMP180;59266;52.608;13.260;2022-08-21T10:36:32;101176.00;;;27.20
71463;BMP180;59266;52.608;13.260;2022-08-21T10:42:17;101181.00;;;27.60
71463;BMP180;59266;52.608;13.260;2022-08-21T10:45:07;101183.00;;;27.20
71463;BMP180;59266;52.608;13.260;2022-08-21T10:47:57;101189.00;;;28.40
71463;BMP180;59266;52.608;13.260;2022-08-21T10:50:44;101186.00;;;28.20
71463;BMP180;59266;52.608;13.260;2022-08-21T10:53:47;101184.00;;;28.70
71463;BMP180;59266;52.608;13.260;2022-08-21T10:56:24;101177.00;;;28.50
71463;BMP180;59266;52.608;13.260;2022-08-21T11:01:32;101182.00;;;30.20
71463;BMP180;59266;52.608;13.260;2022-08-21T11:04:16;101178.00;;;30.40
71463;BMP180;59266;52.608;13.260;2022-08-21T11:06:48;101176.00;;;28.70
71463;BMP180;59266;52.608;13.260;2022-08-21T11:09:20;101172.00;;;29.30
71463;BMP180;59266;52.608;13.260;2022-08-21T11:12:10;101165.00;;;29.30
71463;BMP180;59266;52.608;13.260;2022-08-21T11:14:49;101174.00;;;30.80
71463;BMP180;59266;52.608;13.260;2022-08-21T11:17:22;101174.00;;;29.90
71463;BMP180;59266;52.608;13.260;2022-08-21T11:22:37;101173.00;;;29.10
71463;BMP180;59266;52.608;13.260;2022-08-21T11:25:13;101165.00;;;28.80
71463;BMP180;59266;52.608;13.260;2022-08-21T11:27:49;101174.00;;;29.50
71463;BMP180;59266;52.608;13.260;2022-08-21T11:30:17;101185.00;;;28.10
71463;BMP180;59266;52.608;13.260;2022-08-21T11:33:01;101174.00;;;28.60
71463;BMP180;59266;52.608;13.260;2022-08-21T11:35:38;101178.00;;;28.90
71463;BMP180;59266;52.608;13.260;2022-08-21T11:38:19;101192.00;;;29.80
71463;BMP180;59266;52.608;13.260;2022-08-21T11:40:59;101171.00;;;29.50
71463;BMP180;59266;52.608;13.260;2022-08-21T11:43:43;101179.00;;;28.50
71463;BMP180;59266;52.608;13.260;2022-08-21T11:46:17;101175.00;;;29.80
71463;BMP180;59266;52.608;13.260;2022-08-21T11:51:22;101178.00;;;28.20
71463;BMP180;59266;52.608;13.260;2022-08-21T11:56:37;101178.00;;;28.50
71463;BMP180;59266;52.608;13.260;2022-08-21T11:59:09;101181.00;;;29.20
71463;BMP180;59266;52.608;13.260;2022-08-21T12:01:41;101172.00;;;29.20
71463;BMP180;59266;52.608;13.260;2022-08-21T12:04:24;101178.00;;;29.00
71463;BMP180;59266;52.608;13.260;2022-08-21T12:06:51;101184.00;;;28.70
71463;BMP180;59266;52.608;13.260;2022-08-21T12:12:45;101169.00;;;28.80
71463;BMP180;59266;52.608;13.260;2022-08-21T12:14:49;101164.00;;;29.30
71463;BMP180;59266;52.608;13.260;2022-08-21T12:17:26;101166.00;;;28.80
71463;BMP180;59266;52.608;13.260;2022-08-21T12:20:32;101158.00;;;29.40
71463;BMP180;59266;52.608;13.260;2022-08-21T12:23:17;101154.00;;;29.60
71463;BMP180;59266;52.608;13.260;2022-08-21T12:26:09;101152.00;;;28.40
71463;BMP180;59266;52.608;13.260;2022-08-21T12:28:37;101158.00;;;29.10
71463;BMP180;59266;52.608;13.260;2022-08-21T12:31:04;101149.00;;;29.70
71463;BMP180;59266;52.608;13.260;2022-08-21T12:33:37;101153.00;;;29.60
71463;BMP180;59266;52.608;13.260;2022-08-21T12:36:30;101149.00;;;29.70
71463;BMP180;59266;52.608;13.260;2022-08-21T12:39:05;101144.00;;;30.20
71463;BMP180;59266;52.608;13.260;2022-08-21T12:41:53;101147.00;;;29.40
71463;BMP180;59266;52.608;13.260;2022-08-21T12:44:53;101143.00;;;29.30
71463;BMP180;59266;52.608;13.260;2022-08-21T12:47:29;101146.00;;;29.70
71463;BMP180;59266;52.608;13.260;2022-08-21T12:50:05;101177.00;;;29.60
71463;BMP180;59266;52.608;13.260;2022-08-21T12:52:41;101155.00;;;29.30
71463;BMP180;59266;52.608;13.260;2022-08-21T12:55:13;101156.00;;;29.80
71463;BMP180;59266;52.608;13.260;2022-08-21T12:57:42;101159.00;;;30.00
71463;BMP180;59266;52.608;13.260;2022-08-21T13:00:11;101144.00;;;29.90
71463;BMP180;59266;52.608;13.260;2022-08-21T13:02:46;101165.00;;;29.60
71463;BMP180;59266;52.608;13.260;2022-08-21T13:05:18;101148.00;;;30.10
71463;BMP180;59266;52.608;13.260;2022-08-21T13:07:47;101160.00;;;29.10
71463;BMP180;59266;52.608;13.260;2022-08-21T13:10:25;101151.00;;;28.90
71463;BMP180;59266;52.608;13.260;2022-08-21T13:12:57;101152.00;;;29.00
71463;BMP180;59266;52.608;13.260;2022-08-21T13:15:32;101162.00;;;29.30
71463;BMP180;59266;52.608;13.260;2022-08-21T13:18:00;101149.00;;;29.60
71463;BMP180;59266;52.608;13.260;2022-08-21T13:20:38;101159.00;;;29.30
71463;BMP180;59266;52.608;13.260;2022-08-21T13:23:28;101170.00;;;28.70
71463;BMP180;59266;52.608;13.260;2022-08-21T13:25:55;101174.00;;;28.00
71463;BMP180;59266;52.608;13.260;2022-08-21T13:28:23;101164.00;;;28.20
71463;BMP180;59266;52.608;13.260;2022-08-21T13:30:54;101180.00;;;28.20
71463;BMP180;59266;52.608;13.260;2022-08-21T13:33:24;101166.00;;;28.10
71463;BMP180;59266;52.608;13.260;2022-08-21T13:36:11;101173.00;;;27.80
71463;BMP180;59266;52.608;13.260;2022-08-21T13:38:42;101175.00;;;27.30
71463;BMP180;59266;52.608;13.260;2022-08-21T13:44:13;101165.00;;;27.70
71463;BMP180;59266;52.608;13.260;2022-08-21T13:46:47;101170.00;;;27.30
71463;BMP180;59266;52.608;13.260;2022-08-21T13:49:17;101149.00;;;27.90
71463;BMP180;59266;52.608;13.260;2022-08-21T13:51:45;101144.00;;;28.60
71463;BMP180;59266;52.608;13.260;2022-08-21T13:56:50;101158.00;;;29.50
71463;BMP180;59266;52.608;13.260;2022-08-21T13:59:24;101145.00;;;29.80
71463;BMP180;59266;52.608;13.260;2022-08-21T14:01:55;101158.00;;;29.70
71463;BMP180;59266;52.608;13.260;2022-08-21T14:04:44;101133.00;;;29.60
71463;BMP180;59266;52.608;13.260;2022-08-21T14:07:22;101123.00;;;29.80
71463;BMP180;59266;52.608;13.260;2022-08-21T14:09:50;101137.00;;;30.00
71463;BMP180;59266;52.608;13.260;2022-08-21T14:12:26;101135.00;;;30.40
71463;BMP180;59266;52.608;13.260;2022-08-21T14:14:55;101156.00;;;30.40
71463;BMP180;59266;52.608;13.260;2022-08-21T14:17:34;101159.00;;;29.70
71463;BMP180;59266;52.608;13.260;2022-08-21T14:20:04;101143.00;;;29.40
71463;BMP180;59266;52.608;13.260;2022-08-21T14:22:39;101151.00;;;29.50
71463;BMP180;59266;52.608;13.260;2022-08-21T14:25:15;101140.00;;;30.00
71463;BMP180;59266;52.608;13.260;2022-08-21T14:28:23;101141.00;;;30.40
71463;BMP180;59266;52.608;13.260;2022-08-21T14:30:46;101136.00;;;30.50
71463;BMP180;59266;52.608;13.260;2022-08-21T14:33:27;101144.00;;;30.50
71463;BMP180;59266;52.608;13.260;2022-08-21T14:35:54;101139.00;;;30.70
71463;BMP180;59266;52.608;13.260;2022-08-21T14:38:23;101141.00;;;30.10